createdAt,value
2019-02-19T00:01:07.493Z,-1.00
2019-02-19T00:03:36.670Z,-1.00
2019-02-19T00:06:05.429Z,-1.00
2019-02-19T00:08:34.470Z,-1.00
2019-02-19T00:11:03.310Z,-1.10
2019-02-19T00:13:32.237Z,-1.10
2019-02-19T00:16:01.329Z,-1.10
2019-02-19T00:18:30.190Z,-1.20
2019-02-19T00:20:58.970Z,-1.20
2019-02-19T00:23:27.821Z,-1.30
2019-02-19T00:25:59.703Z,-1.30
2019-02-19T00:28:28.627Z,-1.40
2019-02-19T00:30:57.466Z,-1.40
2019-02-19T00:33:26.395Z,-1.40
2019-02-19T00:35:55.226Z,-1.40
2019-02-19T00:38:24.136Z,-1.40
2019-02-19T00:40:53.056Z,-1.40
2019-02-19T00:43:32.512Z,-1.40
2019-02-19T00:46:01.413Z,-1.40
2019-02-19T00:48:30.347Z,-1.40
2019-02-19T00:50:59.236Z,-1.40
2019-02-19T00:53:28.466Z,-1.40
2019-02-19T00:55:57.470Z,-1.40
2019-02-19T00:58:26.337Z,-1.40
2019-02-19T01:00:55.352Z,-1.40
2019-02-19T01:03:24.635Z,-1.40
2019-02-19T01:05:53.510Z,-1.50
2019-02-19T01:08:22.454Z,-1.50
2019-02-19T01:10:51.279Z,-1.60
2019-02-19T01:13:20.152Z,-1.60
2019-02-19T01:15:48.979Z,-1.70
2019-02-19T01:18:17.887Z,-1.70
2019-02-19T01:20:46.736Z,-1.70
2019-02-19T01:23:15.677Z,-1.80
2019-02-19T01:25:44.653Z,-1.80
2019-02-19T01:28:13.520Z,-1.80
2019-02-19T01:30:42.353Z,-1.80
2019-02-19T01:33:11.255Z,-1.80
2019-02-19T01:35:40.071Z,-1.80
2019-02-19T01:38:08.914Z,-1.90
2019-02-19T01:40:37.793Z,-1.90
2019-02-19T01:43:06.629Z,-1.90
2019-02-19T01:45:35.487Z,-2.00
2019-02-19T01:48:04.395Z,-2.00
2019-02-19T01:50:33.219Z,-2.00
2019-02-19T01:53:02.040Z,-2.00
2019-02-19T01:55:30.934Z,-2.00
2019-02-19T01:58:00.126Z,-2.00
2019-02-19T02:00:29.024Z,-2.00
2019-02-19T02:02:57.916Z,-2.00
2019-02-19T02:05:26.751Z,-2.00
2019-02-19T02:07:55.641Z,-2.00
2019-02-19T02:10:26.283Z,-2.00
2019-02-19T02:12:55.375Z,-1.90
2019-02-19T02:15:24.455Z,-1.90
2019-02-19T02:17:53.280Z,-1.90
2019-02-19T02:20:22.100Z,-1.80
2019-02-19T02:22:51.375Z,-1.80
2019-02-19T02:25:20.246Z,-1.80
2019-02-19T02:27:49.551Z,-1.80
2019-02-19T02:30:18.449Z,-1.80
2019-02-19T02:32:47.268Z,-1.70
2019-02-19T02:35:16.113Z,-1.70
2019-02-19T02:37:45.316Z,-1.70
2019-02-19T02:40:14.564Z,-1.60
2019-02-19T02:42:43.405Z,-1.60
2019-02-19T02:45:12.367Z,-1.60
2019-02-19T02:47:41.280Z,-1.50
2019-02-19T02:50:10.212Z,-1.40
2019-02-19T02:52:39.409Z,-1.40
2019-02-19T02:55:08.592Z,-1.30
2019-02-19T02:57:37.491Z,-1.30
2019-02-19T03:00:08.207Z,-1.30
2019-02-19T03:02:37.058Z,-1.30
2019-02-19T03:05:06.074Z,-1.20
2019-02-19T03:07:40.974Z,-1.20
2019-02-19T03:10:10.085Z,-1.20
2019-02-19T03:12:38.895Z,-1.10
2019-02-19T03:15:07.931Z,-1.10
2019-02-19T03:17:36.765Z,-1.10
2019-02-19T03:20:05.986Z,-1.10
2019-02-19T03:22:34.843Z,-1.10
2019-02-19T03:25:03.864Z,-1.10
2019-02-19T03:27:32.663Z,-1.10
2019-02-19T03:30:01.497Z,-1.10
2019-02-19T03:32:30.322Z,-1.10
2019-02-19T03:34:59.150Z,-1.10
2019-02-19T03:37:28.008Z,-1.10
2019-02-19T03:39:56.827Z,-1.10
2019-02-19T03:42:25.670Z,-1.00
2019-02-19T03:44:54.820Z,-1.00
2019-02-19T03:47:23.702Z,-0.90
2019-02-19T03:49:52.653Z,-0.80
2019-02-19T03:52:21.512Z,-0.80
2019-02-19T03:54:50.707Z,-0.70
2019-02-19T03:57:19.616Z,-0.60
2019-02-19T03:59:48.528Z,-0.50
2019-02-19T04:02:17.507Z,-0.30
2019-02-19T04:04:46.511Z,-0.20
2019-02-19T04:07:15.393Z,-0.10
2019-02-19T04:09:44.220Z,0.10
2019-02-19T04:12:13.378Z,0.20
2019-02-19T04:14:42.197Z,0.30
2019-02-19T04:17:11.615Z,0.40
2019-02-19T04:19:40.440Z,0.50
2019-02-19T04:22:09.442Z,0.60
2019-02-19T04:24:38.364Z,0.70
2019-02-19T04:27:07.578Z,0.80
2019-02-19T04:29:36.488Z,0.90
2019-02-19T04:32:05.436Z,1.00
2019-02-19T04:34:34.644Z,1.10
2019-02-19T04:37:03.963Z,1.20
2019-02-19T04:39:32.765Z,1.20
2019-02-19T04:42:01.856Z,1.30
2019-02-19T04:44:31.436Z,1.40
2019-02-19T04:47:00.528Z,1.40
2019-02-19T04:49:29.354Z,1.40
2019-02-19T04:51:58.195Z,1.50
2019-02-19T04:54:27.186Z,1.50
2019-02-19T04:56:56.383Z,1.50
2019-02-19T04:59:25.271Z,1.60
2019-02-19T05:01:54.365Z,1.60
2019-02-19T05:04:26.265Z,1.70
2019-02-19T05:06:55.446Z,1.70
2019-02-19T05:09:24.764Z,1.70
2019-02-19T05:11:53.639Z,1.80
2019-02-19T05:14:22.550Z,1.80
2019-02-19T05:16:51.371Z,1.90
2019-02-19T05:19:20.209Z,1.90
2019-02-19T05:21:49.565Z,1.90
2019-02-19T05:24:18.403Z,1.90
2019-02-19T05:26:47.222Z,1.90
2019-02-19T05:29:16.044Z,2.00
2019-02-19T05:31:44.967Z,2.00
2019-02-19T05:34:13.826Z,2.10
2019-02-19T05:36:42.923Z,2.10
2019-02-19T05:39:11.765Z,2.10
2019-02-19T05:41:40.966Z,2.10
2019-02-19T05:44:09.848Z,2.20
2019-02-19T05:46:38.848Z,2.20
2019-02-19T05:49:07.712Z,2.20
2019-02-19T05:51:36.541Z,2.30
2019-02-19T05:54:05.790Z,2.30
2019-02-19T05:56:34.703Z,2.30
2019-02-19T05:59:03.688Z,2.40
2019-02-19T06:01:32.571Z,2.40
2019-02-19T06:04:01.423Z,2.40
2019-02-19T06:06:30.315Z,2.50
2019-02-19T06:08:59.275Z,2.50
2019-02-19T06:11:28.137Z,2.60
2019-02-19T06:13:56.971Z,2.60
2019-02-19T06:16:26.048Z,2.60
2019-02-19T06:18:54.929Z,2.60
2019-02-19T06:21:23.792Z,2.60
2019-02-19T06:24:07.475Z,2.60
2019-02-19T06:26:36.566Z,2.60
2019-02-19T06:29:05.347Z,2.60
2019-02-19T06:31:34.113Z,2.60
2019-02-19T06:34:02.885Z,2.60
2019-02-19T06:36:31.651Z,2.60
2019-02-19T06:39:00.923Z,2.60
2019-02-19T06:41:30.001Z,2.60
2019-02-19T06:43:58.860Z,2.70
2019-02-19T06:46:27.640Z,2.70
2019-02-19T06:48:56.427Z,2.70
2019-02-19T06:51:25.188Z,2.70
2019-02-19T06:53:53.985Z,2.70
2019-02-19T06:56:22.754Z,2.80
2019-02-19T06:58:52.376Z,2.80
2019-02-19T07:01:33.713Z,2.80
2019-02-19T07:04:07.517Z,2.80
2019-02-19T07:06:36.643Z,2.90
2019-02-19T07:09:05.881Z,2.90
2019-02-19T07:11:34.651Z,2.90
2019-02-19T07:14:03.497Z,2.90
2019-02-19T07:16:32.288Z,2.90
2019-02-19T07:19:01.486Z,2.90
2019-02-19T07:21:30.360Z,2.90
2019-02-19T07:24:04.372Z,2.90
2019-02-19T07:26:29.765Z,2.90
2019-02-19T07:28:58.553Z,2.80
2019-02-19T07:31:27.318Z,2.90
2019-02-19T07:33:56.122Z,2.90
2019-02-19T07:36:24.918Z,2.90
2019-02-19T07:38:53.759Z,3.00
2019-02-19T07:41:22.546Z,3.10
2019-02-19T07:43:51.318Z,3.10
2019-02-19T07:46:23.002Z,3.20
2019-02-19T07:48:51.768Z,3.30
2019-02-19T07:51:20.534Z,3.30
2019-02-19T07:53:49.297Z,3.40
2019-02-19T07:56:18.074Z,3.50
2019-02-19T07:58:46.854Z,3.60
2019-02-19T08:01:15.639Z,3.70
2019-02-19T08:03:45.121Z,3.80
2019-02-19T08:06:13.901Z,3.90
2019-02-19T08:08:42.677Z,4.10
2019-02-19T08:11:11.482Z,4.20
2019-02-19T08:13:40.278Z,4.40
2019-02-19T08:16:09.045Z,4.60
2019-02-19T08:18:37.842Z,4.70
2019-02-19T08:21:06.719Z,4.80
2019-02-19T08:23:35.510Z,5.00
2019-02-19T08:26:04.301Z,5.00
2019-02-19T08:28:33.117Z,5.10
2019-02-19T08:31:01.927Z,5.10
2019-02-19T08:33:30.985Z,5.20
2019-02-19T08:35:59.768Z,5.20
2019-02-19T08:38:28.595Z,5.20
2019-02-19T08:40:57.377Z,5.30
2019-02-19T08:43:26.143Z,5.40
2019-02-19T08:45:54.937Z,5.60
2019-02-19T08:48:24.001Z,5.80
2019-02-19T08:50:52.781Z,6.00
2019-02-19T08:53:21.537Z,6.10
2019-02-19T08:55:50.331Z,6.20
2019-02-19T08:58:19.361Z,6.20
2019-02-19T09:00:48.148Z,6.40
2019-02-19T09:03:17.067Z,6.50
2019-02-19T09:05:45.941Z,6.90
2019-02-19T09:08:14.705Z,7.10
2019-02-19T09:10:43.809Z,7.20
2019-02-19T09:13:12.657Z,7.40
2019-02-19T09:15:41.474Z,7.60
2019-02-19T09:18:10.225Z,7.90
2019-02-19T09:20:39.002Z,8.40
2019-02-19T09:23:07.866Z,9.00
2019-02-19T09:25:36.633Z,9.40
2019-02-19T09:28:05.413Z,9.50
2019-02-19T09:30:34.512Z,9.40
2019-02-19T09:33:03.657Z,9.30
2019-02-19T09:35:32.418Z,9.30
2019-02-19T09:38:01.276Z,9.40
2019-02-19T09:40:30.047Z,9.60
2019-02-19T09:42:59.107Z,9.70
2019-02-19T09:45:28.361Z,9.90
2019-02-19T09:48:01.178Z,10.30
2019-02-19T09:50:27.657Z,11.10
2019-02-19T09:53:00.034Z,11.50
2019-02-19T09:55:27.420Z,11.40
2019-02-19T09:57:56.209Z,11.30
2019-02-19T10:00:25.307Z,11.20
2019-02-19T10:02:54.168Z,10.90
2019-02-19T10:05:22.932Z,10.90
2019-02-19T10:07:51.721Z,11.10
2019-02-19T10:10:20.622Z,11.20
2019-02-19T10:12:49.493Z,12.60
2019-02-19T10:15:18.271Z,14.80
2019-02-19T10:17:47.069Z,15.00
2019-02-19T10:20:16.213Z,14.90
2019-02-19T10:22:45.087Z,14.40
2019-02-19T10:25:13.953Z,14.70
2019-02-19T10:27:42.741Z,14.80
2019-02-19T10:30:13.486Z,14.60
2019-02-19T10:32:42.294Z,14.30
2019-02-19T10:35:11.590Z,14.20
2019-02-19T10:37:40.453Z,16.80
2019-02-19T10:40:11.579Z,18.70
2019-02-19T10:42:40.453Z,19.70
2019-02-19T10:45:11.607Z,20.70
2019-02-19T10:47:40.498Z,21.00
2019-02-19T10:50:09.897Z,21.60
2019-02-19T10:52:38.720Z,22.90
2019-02-19T10:55:07.655Z,21.80
2019-02-19T10:57:36.781Z,22.70
2019-02-19T11:00:08.493Z,22.00
2019-02-19T11:02:37.313Z,20.80
2019-02-19T11:05:06.738Z,20.60
2019-02-19T11:07:35.775Z,20.70
2019-02-19T11:10:05.448Z,20.60
2019-02-19T11:12:34.225Z,21.60
2019-02-19T11:15:03.016Z,23.00
2019-02-19T11:17:31.793Z,23.70
2019-02-19T11:20:00.907Z,23.20
2019-02-19T11:22:29.781Z,22.70
2019-02-19T11:24:58.566Z,20.80
2019-02-19T11:27:27.523Z,19.70
2019-02-19T11:29:56.309Z,18.30
2019-02-19T11:32:26.358Z,17.00
2019-02-19T11:34:55.360Z,16.00
2019-02-19T11:37:24.226Z,15.50
2019-02-19T11:39:53.018Z,15.00
2019-02-19T11:42:21.803Z,14.30
2019-02-19T11:44:50.590Z,14.00
2019-02-19T11:47:26.441Z,13.50
2019-02-19T11:49:50.553Z,13.10
2019-02-19T11:52:19.329Z,12.90
2019-02-19T11:54:48.122Z,12.90
2019-02-19T11:57:17.044Z,13.00
2019-02-19T11:59:45.840Z,13.90
2019-02-19T12:02:15.861Z,14.50
2019-02-19T12:04:44.997Z,15.20
2019-02-19T12:07:13.772Z,15.50
2019-02-19T12:09:42.890Z,15.30
2019-02-19T12:12:11.679Z,14.60
2019-02-19T12:14:40.548Z,14.60
2019-02-19T12:17:09.321Z,14.80
2019-02-19T12:19:38.161Z,16.20
2019-02-19T12:22:06.933Z,17.50
2019-02-19T12:24:35.718Z,18.70
2019-02-19T12:27:04.605Z,20.40
2019-02-19T12:29:33.405Z,21.70
2019-02-19T12:32:02.190Z,22.70
2019-02-19T12:34:31.541Z,23.00
2019-02-19T12:37:00.748Z,23.20
2019-02-19T12:39:29.510Z,21.80
2019-02-19T12:41:58.330Z,22.40
2019-02-19T12:44:27.105Z,22.80
2019-02-19T12:46:55.882Z,21.20
2019-02-19T12:49:24.722Z,20.30
2019-02-19T12:51:55.492Z,19.10
2019-02-19T12:54:24.037Z,18.00
2019-02-19T12:56:52.937Z,17.50
2019-02-19T12:59:22.094Z,16.40
2019-02-19T13:01:50.873Z,15.30
2019-02-19T13:04:19.650Z,14.60
2019-02-19T13:06:48.426Z,14.00
2019-02-19T13:09:17.224Z,13.20
2019-02-19T13:11:46.001Z,12.80
2019-02-19T13:14:14.761Z,12.40
2019-02-19T13:16:43.545Z,13.80
2019-02-19T13:19:12.401Z,14.80
2019-02-19T13:21:41.173Z,16.00
2019-02-19T13:24:10.703Z,16.70
2019-02-19T13:26:39.487Z,16.90
2019-02-19T13:29:08.258Z,17.40
2019-02-19T13:31:37.050Z,17.80
2019-02-19T13:34:05.833Z,17.90
2019-02-19T13:36:34.618Z,17.60
2019-02-19T13:39:05.331Z,17.30
2019-02-19T13:41:34.393Z,16.60
2019-02-19T13:44:03.237Z,16.60
2019-02-19T13:46:32.374Z,16.20
2019-02-19T13:49:01.451Z,16.60
2019-02-19T13:51:30.234Z,16.50
2019-02-19T13:54:21.396Z,17.00
2019-02-19T13:56:50.188Z,17.00
2019-02-19T13:59:18.973Z,16.90
2019-02-19T14:01:47.775Z,16.70
2019-02-19T14:04:16.550Z,16.20
2019-02-19T14:06:45.417Z,16.00
2019-02-19T14:09:14.189Z,15.60
2019-02-19T14:11:43.265Z,15.20
2019-02-19T14:14:40.505Z,14.90
2019-02-19T14:17:12.256Z,14.20
2019-02-19T14:19:54.663Z,13.50
2019-02-19T14:22:41.311Z,12.80
2019-02-19T14:25:28.925Z,12.20
2019-02-19T14:28:15.425Z,11.60
2019-02-19T14:31:02.332Z,11.30
2019-02-19T14:33:59.533Z,11.10
2019-02-19T14:36:37.699Z,11.00
2019-02-19T14:39:19.357Z,11.20
2019-02-19T14:42:04.448Z,11.50
2019-02-19T14:44:55.139Z,11.70
2019-02-19T14:47:46.169Z,11.60
2019-02-19T14:50:33.341Z,11.40
2019-02-19T14:53:24.294Z,11.30
2019-02-19T14:56:01.248Z,11.10
2019-02-19T14:58:47.733Z,11.10
2019-02-19T15:01:35.590Z,10.70
2019-02-19T15:04:22.485Z,10.40
2019-02-19T15:07:09.306Z,10.10
2019-02-19T15:09:55.950Z,9.90
2019-02-19T15:12:46.921Z,9.70
2019-02-19T15:15:50.446Z,9.60
2019-02-19T15:18:41.750Z,9.50
2019-02-19T15:21:21.588Z,9.40
2019-02-19T15:24:18.986Z,9.30
2019-02-19T15:27:04.297Z,9.20
2019-02-19T15:30:01.497Z,9.10
2019-02-19T15:32:49.530Z,9.10
2019-02-19T15:35:32.882Z,9.10
2019-02-19T15:38:17.201Z,9.30
2019-02-19T15:40:54.557Z,9.40
2019-02-19T15:43:54.324Z,9.50
2019-02-19T15:46:40.896Z,9.60
2019-02-19T15:49:22.813Z,9.70
2019-02-19T15:52:10.631Z,9.60
2019-02-19T15:54:50.186Z,9.50
2019-02-19T15:57:40.794Z,9.30
2019-02-19T16:00:27.357Z,9.20
2019-02-19T16:03:00.848Z,9.10
2019-02-19T16:05:41.164Z,8.90
2019-02-19T16:08:19.232Z,8.60
2019-02-19T16:11:04.525Z,8.50
2019-02-19T16:13:58.438Z,8.40
2019-02-19T16:16:42.884Z,8.20
2019-02-19T16:19:40.005Z,8.20
2019-02-19T16:22:32.282Z,8.00
2019-02-19T16:25:20.134Z,7.80
2019-02-19T16:28:05.575Z,7.60
2019-02-19T16:30:59.405Z,7.40
2019-02-19T16:33:45.945Z,7.20
2019-02-19T16:36:20.470Z,6.90
2019-02-19T16:39:07.338Z,6.60
2019-02-19T16:41:58.193Z,6.30
2019-02-19T16:44:48.153Z,6.10
2019-02-19T16:47:33.521Z,5.80
2019-02-19T16:50:21.452Z,5.70
2019-02-19T16:53:05.124Z,5.50
2019-02-19T16:56:11.485Z,5.40
2019-02-19T16:58:49.698Z,5.20
2019-02-19T17:01:25.952Z,4.90
2019-02-19T17:03:59.641Z,4.70
2019-02-19T17:06:53.462Z,4.50
2019-02-19T17:09:30.393Z,4.40
2019-02-19T17:12:27.657Z,4.30
2019-02-19T17:15:21.047Z,4.10
2019-02-19T17:18:16.634Z,3.90
2019-02-19T17:21:04.586Z,3.80
2019-02-19T17:23:44.523Z,3.60
2019-02-19T17:26:32.398Z,3.40
2019-02-19T17:29:26.322Z,3.30
2019-02-19T17:32:12.436Z,3.10
2019-02-19T17:34:49.705Z,2.90
2019-02-19T17:37:36.241Z,2.80
2019-02-19T17:40:23.267Z,2.60
2019-02-19T17:43:29.581Z,2.50
2019-02-19T17:46:20.062Z,2.40
2019-02-19T17:49:06.617Z,2.30
2019-02-19T17:51:45.029Z,2.10
2019-02-19T17:54:38.905Z,1.90
2019-02-19T17:57:22.407Z,1.80
2019-02-19T18:00:16.136Z,1.70
2019-02-19T18:03:02.818Z,1.60
2019-02-19T18:05:44.798Z,1.50
2019-02-19T18:08:24.536Z,1.50
2019-02-19T18:11:11.125Z,1.40
2019-02-19T18:13:47.818Z,1.40
2019-02-19T18:16:30.445Z,1.30
2019-02-19T18:18:59.802Z,1.30
2019-02-19T18:21:29.001Z,1.20
2019-02-19T18:23:57.898Z,1.20
2019-02-19T18:26:26.786Z,1.10
2019-02-19T18:28:55.641Z,1.10
2019-02-19T18:31:24.412Z,1.00
2019-02-19T18:33:53.298Z,1.00
2019-02-19T18:36:22.413Z,1.00
2019-02-19T18:38:52.129Z,0.90
2019-02-19T18:41:20.911Z,0.80
2019-02-19T18:43:49.865Z,0.80
2019-02-19T18:46:18.641Z,0.80
2019-02-19T18:48:47.494Z,0.70
2019-02-19T18:51:16.781Z,0.60
2019-02-19T18:53:45.935Z,0.50
2019-02-19T18:56:14.802Z,0.50
2019-02-19T18:58:43.561Z,0.40
2019-02-19T19:01:12.353Z,0.40
2019-02-19T19:03:43.189Z,0.30
2019-02-19T19:06:11.957Z,0.30
2019-02-19T19:08:40.741Z,0.30
2019-02-19T19:11:09.594Z,0.20
2019-02-19T19:13:38.626Z,0.20
2019-02-19T19:16:07.473Z,0.20
2019-02-19T19:18:36.243Z,0.20
2019-02-19T19:21:07.935Z,0.10
2019-02-19T19:23:35.598Z,0.10
2019-02-19T19:26:04.834Z,0.00
2019-02-19T19:28:33.608Z,0.00
2019-02-19T19:31:02.369Z,0.00
2019-02-19T19:33:31.142Z,-0.10
2019-02-19T19:35:59.974Z,-0.10
2019-02-19T19:38:28.919Z,-0.20
2019-02-19T19:40:57.799Z,-0.20
2019-02-19T19:43:26.591Z,-0.30
2019-02-19T19:45:55.368Z,-0.40
2019-02-19T19:48:24.153Z,-0.40
2019-02-19T19:50:52.968Z,-0.50
2019-02-19T19:53:21.750Z,-0.50
2019-02-19T19:55:50.525Z,-0.50
2019-02-19T19:58:19.341Z,-0.50
2019-02-19T20:00:48.115Z,-0.50
2019-02-19T20:03:16.877Z,-0.60
2019-02-19T20:05:46.058Z,-0.60
2019-02-19T20:08:14.813Z,-0.60
2019-02-19T20:10:44.648Z,-0.70
2019-02-19T20:13:13.749Z,-0.70
2019-02-19T20:15:42.591Z,-0.80
2019-02-19T20:18:11.718Z,-0.80
2019-02-19T20:20:40.505Z,-0.90
2019-02-19T20:23:09.349Z,-0.90
2019-02-19T20:25:38.135Z,-0.90
2019-02-19T20:28:06.919Z,-0.90
2019-02-19T20:30:35.959Z,-0.90
2019-02-19T20:33:05.059Z,-0.90
2019-02-19T20:35:34.193Z,-0.90
2019-02-19T20:38:02.970Z,-0.80
2019-02-19T20:40:31.778Z,-0.70
2019-02-19T20:43:00.540Z,-0.70
2019-02-19T20:45:29.637Z,-0.70
2019-02-19T20:47:59.809Z,-0.70
2019-02-19T20:50:29.170Z,-0.80
2019-02-19T20:52:57.949Z,-0.90
2019-02-19T20:55:26.740Z,-0.90
2019-02-19T20:57:55.617Z,-1.00
2019-02-19T21:00:24.473Z,-1.00
2019-02-19T21:02:53.277Z,-1.10
2019-02-19T21:05:22.069Z,-1.10
2019-02-19T21:07:50.837Z,-1.10
2019-02-19T21:10:19.649Z,-1.20
2019-02-19T21:12:49.000Z,-1.10
2019-02-19T21:15:17.853Z,-1.10
2019-02-19T21:17:46.624Z,-1.00
2019-02-19T21:20:15.397Z,-1.00
2019-02-19T21:22:44.174Z,-0.90
2019-02-19T21:25:13.110Z,-0.90
2019-02-19T21:27:41.885Z,-1.00
2019-02-19T21:30:11.334Z,-1.00
2019-02-19T21:32:40.125Z,-1.10
2019-02-19T21:35:09.585Z,-1.10
2019-02-19T21:37:38.385Z,-1.20
2019-02-19T21:40:07.798Z,-1.20
2019-02-19T21:42:36.601Z,-1.30
2019-02-19T21:45:05.849Z,-1.30
2019-02-19T21:47:35.453Z,-1.40
2019-02-19T21:50:04.801Z,-1.40
2019-02-19T21:52:33.671Z,-1.50
2019-02-19T21:55:02.462Z,-1.50
2019-02-19T21:57:31.396Z,-1.50
2019-02-19T22:00:00.360Z,-1.60
2019-02-19T22:02:29.118Z,-1.60
2019-02-19T22:04:57.887Z,-1.60
2019-02-19T22:07:26.674Z,-1.60
2019-02-19T22:09:55.521Z,-1.60
2019-02-19T22:12:24.584Z,-1.70
2019-02-19T22:14:53.363Z,-1.70
2019-02-19T22:17:22.153Z,-1.70
2019-02-19T22:19:50.932Z,-1.80
2019-02-19T22:22:21.751Z,-1.80
2019-02-19T22:24:50.589Z,-1.90
2019-02-19T22:27:19.373Z,-1.90
2019-02-19T22:29:48.437Z,-1.90
2019-02-19T22:32:19.221Z,-1.90
2019-02-19T22:34:48.000Z,-1.90
2019-02-19T22:37:16.788Z,-2.00
2019-02-19T22:39:47.330Z,-2.00
2019-02-19T22:42:16.236Z,-2.00
2019-02-19T22:44:45.287Z,-2.10
2019-02-19T22:47:14.089Z,-2.10
2019-02-19T22:49:43.019Z,-2.10
2019-02-19T22:52:12.849Z,-2.10
2019-02-19T22:54:46.384Z,-2.10
2019-02-19T22:57:27.440Z,-2.10
2019-02-19T22:59:56.193Z,-2.20
2019-02-19T23:02:27.350Z,-2.20
2019-02-19T23:04:56.206Z,-2.20
2019-02-19T23:07:25.088Z,-2.30
2019-02-19T23:09:53.859Z,-2.30
2019-02-19T23:12:22.642Z,-2.30
2019-02-19T23:14:51.427Z,-2.30
2019-02-19T23:17:20.410Z,-2.30
2019-02-19T23:19:49.210Z,-2.40
2019-02-19T23:22:21.611Z,-2.40
2019-02-19T23:24:50.367Z,-2.40
2019-02-19T23:27:19.093Z,-2.40
2019-02-19T23:29:47.941Z,-2.40
2019-02-19T23:32:16.735Z,-2.40
2019-02-19T23:34:46.617Z,-2.50
2019-02-19T23:37:20.702Z,-2.50
2019-02-19T23:39:49.482Z,-2.50
2019-02-19T23:42:18.395Z,-2.50
2019-02-19T23:44:47.173Z,-2.60
2019-02-19T23:47:15.994Z,-2.60
2019-02-19T23:49:44.809Z,-2.60
2019-02-19T23:52:13.828Z,-2.70
2019-02-19T23:54:42.609Z,-2.70
2019-02-19T23:57:11.648Z,-2.70
2019-02-19T23:59:40.428Z,-2.70
